AirNav   Air Wisconsin pilot careers
 
 1629 users online  

80VA Holly Springs Airport
Richmond, Virginia, USA

GOING TO RICHMOND?


FAA INFORMATION EFFECTIVE 01 FEBRUARY 2018

Location

FAA Identifier: 80VA
Lat/Long: 37-47-28.5180N / 077-49-28.9780W
37-47.475300N / 077-49.482967W
37.7912550 / -77.8247161
(estimated)
Elevation: 250 ft. / 76 m (estimated)
Variation: 09W (1990)
From city: 17 miles N of RICHMOND, VA
Time zone: UTC -5 (UTC -4 during Daylight Saving Time)
Zip code: 23024

Airport Operations

Airport use: Private use. Permission required prior to landing
Activation date: 02/1994
Control tower: no
ARTCC: WASHINGTON CENTER
FSS: LEESBURG FLIGHT SERVICE STATION
Attendance: SAT-SUN DAWN-DUSK
Wind indicator: yes
Segmented circle: no
Lights: FOR STROBE LIGHT & LIRL RY 06/24 CALL (804) 883-5314.
Beacon: FLASHING STROBE LIGHT.

Airport Communications

WX AWOS-3 at 7W4 (11 nm N): 120.775 (540-872-0303)
WX AWOS-3 at LKU (15 nm NW): 119.475 (540-967-1983)
WX ASOS at OFP (19 nm E): 119.025 (804-752-2902)

Nearby radio navigation aids

VOR radial/distance  VOR name  Freq  Var
FAKr007/15.8FLAT ROCK VORTAC113.3006W
GVEr137/20.5GORDONSVILLE VORTAC115.6006W
RICr315/29.6RICHMOND VORTAC114.1009W
BRVr223/39.6BROOKE VORTAC114.5009W

 
NDB name  Hdg/Dist  Freq  Var  ID
SHANNON222/33.523710WEZF . --.. ..-.
FARMVILLE057/39.336709WFVX ..-. ...- -..-
NAILR185/40.035110WMSQ -- ... --.-

Airport Services

Fuel available: MOGAS

Runway Information

Runway 6/24

Dimensions: 2000 x 90 ft. / 610 x 27 m
Surface: turf
Runway edge lights: low intensity
RUNWAY 6  RUNWAY 24
Traffic pattern: leftleft

Airport Ownership and Management from official FAA records

Ownership: Privately-owned
Owner: JAMES DUNN SR
RT 1 BOX 2270
MONTPELIER, VA 23192
Phone 804-883-5314
Manager: JAMES DUNN SR
RT 1 BOX 2270
MONTPELIER, VA 23193
Phone 804-883-5314

Airport Operational Statistics

Aircraft based on the field: 7
Single engine airplanes: 7
    

Instrument Procedures

There are no published instrument procedures at 80VA.

Some nearby airports with instrument procedures:

7W4 - Lake Anna Airport (11 nm N)
KLKU - Louisa County Airport/Freeman Field (15 nm NW)
KOFP - Hanover County Municipal Airport (19 nm E)
KFCI - Richmond Executive Airport-Chesterfield County (27 nm SE)
KGVE - Gordonsville Municipal Airport (27 nm NW)
 
Loc | Ops | Rwys | IFR | FBO | Links
Com | Nav | Svcs | Stats | Notes

AirNav Hotels Sweepstakes
 
Area around 80VA (Holly Springs Airport)
 
Road maps at: MapQuest Bing Google
 
Aerial photo
No photo
 
Sectional chart

 
Airport distance calculator
Flying to Holly Springs Airport? Find the distance to fly.

From to 80VA

Sunrise and sunset
Times for 21-Feb-2018
 Local
(UTC-5)
 Zulu
(UTC)
Morning civil twilight06:2811:28
Sunrise06:5511:55
Sunset17:5522:55
Evening civil twilight18:2223:22

Current date and time
Zulu (UTC)  21-Feb-2018 21:36:59
Local (UTC-5)  21-Feb-2018 16:36:59
 
METAR
K7W4 
11nm N 
212115Z AUTO 19008G17KT 140V230 10SM BKN049 26/15 A3030 RMK AO1 T02620151
KLKU 
15nm NW 
212115Z AUTO 21013G22KT 190V260 10SM BKN045 25/16 A3035 RMK AO2 T02540158
KOFP 
19nm E 
212054Z AUTO 20010KT 10SM SCT048 26/16 A3033 RMK AO2 SLP269 T02610161 56014
TAF
KRIC 
29nm SE 
211906Z 2119/2218 21012G18KT P6SM SCT035 FM212200 23005KT P6SM SCT120 FM220800 22004KT P6SM BKN010 FM221300 VRB03KT P6SM VCSH OVC005
KCHO 
36nm NW 
211720Z 2118/2218 21012G20KT P6SM SCT035 BKN080 FM212000 21012G22KT P6SM FEW035 SCT140 FM212200 20010G19KT P6SM SCT035 BKN100 FM220000 20006KT P6SM SCT025 BKN140 FM220700 00000KT 2SM -RADZ BR BKN010 OVC025 FM221000 04006KT 2SM -RADZ BR BKN008 OVC025
NOTAMs
Click for the latest NOTAMs
NOTAMs are issued by the DoD/FAA and will open in a separate window not controlled by AirNav.

 

 
 

Would you like to see your business listed on this page?

 If your business provides an interesting product or service to pilots, flight crews, aircraft, or users of the Holly Springs Airport, you should consider listing it here.  To start the listing process, click on the button below
 
Add a business
 

Other Pages about Holly Springs Airport

www.erols.com/...
 
Update a link
 
Copyright © AirNav, LLC. All rights reserved. Privacy Policy  Contact